Time;durP1;ratioP1;P1;durP2;ratioP2;P2;SDS_P1;SDS_P2;PMS_P1;PMS_P2;Temp;Humidity;BMP_temperature;BMP_pressure;BME280_temperature;BME280_humidity;BME280_pressure;Samples;Min_cycle;Max_cycle;Signal;HPM_P1;HPM_P2
2022/11/20 00:01:09;;;;;;;12.00;10.40;;;;;;;14.39;100.00;94181.34;5071379;28;20451;-78
2022/11/20 00:03:36;;;;;;;14.30;9.33;;;;;;;14.45;100.00;94175.41;5071806;28;20455;-78
2022/11/20 00:06:04;;;;;;;11.17;9.97;;;;;;;14.34;100.00;94152.81;5071480;28;20484;-79
2022/11/20 00:08:30;;;;;;;10.77;9.10;;;;;;;14.48;100.00;94175.09;5071617;28;20483;-78
2022/11/20 00:10:58;;;;;;;15.60;11.80;;;;;;;14.60;100.00;94189.56;5073533;28;20449;-78
2022/11/20 00:13:25;;;;;;;15.33;10.30;;;;;;;14.57;100.00;94181.97;5023094;28;20471;-78
2022/11/20 00:15:58;;;;;;;15.00;9.60;;;;;;;14.64;99.80;94180.28;5075636;28;20775;-78
2022/11/20 00:18:25;;;;;;;15.07;9.70;;;;;;;14.80;99.47;94187.31;5074645;28;20468;-79
2022/11/20 00:20:52;;;;;;;13.50;10.33;;;;;;;14.90;98.81;94179.16;5075203;28;20463;-78
2022/11/20 00:23:19;;;;;;;13.20;7.80;;;;;;;14.86;97.28;94157.56;5075066;28;20946;-78
2022/11/20 00:25:45;;;;;;;10.83;6.60;;;;;;;14.93;96.05;94168.25;5074825;28;20490;-78
2022/11/20 00:28:14;;;;;;;10.80;7.57;;;;;;;15.04;95.87;94170.53;5074799;28;20440;-78
2022/11/20 00:30:40;;;;;;;8.20;6.80;;;;;;;15.00;94.53;94154.16;5074660;28;20449;-78
2022/11/20 00:33:07;;;;;;;11.00;6.53;;;;;;;15.12;92.87;94160.72;5074487;28;20804;-78
2022/11/20 00:35:34;;;;;;;8.60;5.53;;;;;;;15.27;92.17;94163.41;5074468;28;20488;-78
2022/11/20 00:38:01;;;;;;;10.20;6.87;;;;;;;15.31;91.42;94169.16;5074744;28;20939;-78
2022/11/20 00:40:27;;;;;;;7.70;6.00;;;;;;;15.40;91.35;94171.59;5074595;28;20452;-78
2022/11/20 00:42:54;;;;;;;7.93;6.00;;;;;;;15.45;91.65;94179.78;5074596;28;20992;-78
2022/11/20 00:45:22;;;;;;;9.47;7.93;;;;;;;15.55;91.03;94176.09;5074215;28;20452;-78
2022/11/20 00:47:49;;;;;;;7.87;5.90;;;;;;;15.43;91.18;94147.44;5074544;28;20450;-78
2022/11/20 00:50:16;;;;;;;6.90;6.27;;;;;;;15.41;91.33;94160.00;5074611;28;20472;-78
2022/11/20 01:09:22;;;;;;;7.00;5.10;;;;;;;16.16;85.99;94193.56;5158375;27;20566;-79
2022/11/20 01:11:49;;;;;;;4.90;4.20;;;;;;;16.13;85.74;94166.66;5131924;27;20855;-79
2022/11/20 01:14:19;;;;;;;8.60;5.43;;;;;;;16.14;85.29;94157.69;5111468;28;20469;-79
2022/11/20 01:16:48;;;;;;;9.50;6.90;;;;;;;16.08;85.25;94160.06;5136848;27;20444;-79
2022/11/20 01:19:17;;;;;;;7.37;5.53;;;;;;;16.12;85.29;94160.53;5140176;27;20458;-78
2022/11/20 01:21:45;;;;;;;5.63;5.10;;;;;;;16.08;85.11;94175.97;5134541;27;20500;-79
2022/11/20 01:24:14;;;;;;;4.30;3.40;;;;;;;16.05;82.55;94170.22;5136989;27;20499;-79
2022/11/20 01:26:44;;;;;;;5.97;4.10;;;;;;;16.17;82.63;94159.97;5143542;27;20499;-79
2022/11/20 01:29:14;;;;;;;4.73;4.33;;;;;;;16.28;82.58;94146.31;5151515;27;20433;-79
2022/11/20 01:31:41;;;;;;;5.50;4.30;;;;;;;16.27;83.21;94148.13;5115261;27;20520;-79
2022/11/20 01:34:10;;;;;;;5.80;4.93;;;;;;;16.29;83.83;94130.25;5151124;27;20441;-79
2022/11/20 01:36:38;;;;;;;5.07;4.37;;;;;;;16.18;82.93;94137.81;5151327;27;20448;-79
2022/11/20 01:39:06;;;;;;;7.33;4.63;;;;;;;16.23;82.73;94133.63;5151152;27;20506;-79
2022/11/20 01:44:22;;;;;;;9.03;6.07;;;;;;;16.08;85.01;94128.31;5120424;27;20473;-78
2022/11/20 01:46:56;;;;;;;7.33;5.90;;;;;;;16.13;85.73;94116.34;5150800;27;20486;-79
2022/11/20 01:49:27;;;;;;;7.60;5.40;;;;;;;16.10;86.48;94133.44;5151027;27;20448;-79
2022/11/20 01:51:58;;;;;;;7.03;5.20;;;;;;;16.08;85.57;94132.78;5150813;27;20437;-79
2022/11/20 01:54:32;;;;;;;8.30;6.20;;;;;;;15.99;86.61;94110.88;5151174;27;20443;-78
2022/11/20 01:57:01;;;;;;;9.87;7.27;;;;;;;15.75;89.02;94111.13;5116167;27;20466;-78
2022/11/20 01:59:30;;;;;;;7.73;7.00;;;;;;;15.66;89.65;94106.94;5150635;27;20539;-79
2022/11/20 02:01:57;;;;;;;11.67;7.80;;;;;;;15.67;89.68;94105.94;5150605;27;20442;-79
2022/11/20 02:04:25;;;;;;;12.40;7.60;;;;;;;15.72;90.20;94117.63;5150563;27;20436;-79
2022/11/20 02:06:58;;;;;;;7.30;6.50;;;;;;;15.78;89.93;94105.47;5150616;27;20450;-79
2022/11/20 02:09:25;;;;;;;11.93;6.90;;;;;;;15.74;89.77;94122.72;5141664;27;20442;-79
2022/11/20 02:11:52;;;;;;;8.20;6.80;;;;;;;15.80;89.34;94129.94;5136728;27;20498;-78
2022/11/20 02:14:18;;;;;;;7.40;6.47;;;;;;;15.82;88.66;94132.41;5137046;27;20449;-78
2022/11/20 02:16:48;;;;;;;9.33;6.50;;;;;;;15.84;88.71;94139.16;5136484;27;20449;-79
2022/11/20 02:19:24;;;;;;;13.80;11.67;;;;;;;15.89;88.52;94134.13;5136799;27;20452;-79
2022/11/20 02:22:00;;;;;;;11.60;9.20;;;;;;;15.86;88.25;94129.19;5136880;27;20526;-79
2022/11/20 02:24:28;;;;;;;6.90;6.20;;;;;;;15.85;86.08;94132.03;5136619;27;20450;-79
2022/11/20 02:26:58;;;;;;;7.90;6.30;;;;;;;15.90;85.97;94119.06;5136286;27;20857;-79
2022/11/20 02:29:28;;;;;;;14.17;7.20;;;;;;;15.98;86.09;94121.66;5136292;27;20844;-79
2022/11/20 02:31:57;;;;;;;5.13;4.63;;;;;;;16.08;85.30;94130.16;5136163;27;20942;-79
2022/11/20 02:34:24;;;;;;;5.90;4.13;;;;;;;16.11;83.07;94138.53;5100172;27;20440;-79
2022/11/20 02:36:53;;;;;;;14.37;6.40;;;;;;;16.28;83.12;94118.00;5136216;27;20494;-78
2022/11/20 02:39:21;;;;;;;10.53;6.13;;;;;;;16.23;82.78;94140.75;5136065;27;20525;-78
2022/11/20 02:41:49;;;;;;;7.20;4.10;;;;;;;16.27;81.98;94126.13;5136002;27;20969;-78
2022/11/20 02:44:16;;;;;;;2.97;2.70;;;;;;;16.35;80.16;94126.03;5136731;27;20444;-79
2022/11/20 02:46:43;;;;;;;3.37;3.07;;;;;;;16.53;78.25;94150.31;5100232;27;20442;-78
2022/11/20 02:49:10;;;;;;;3.10;2.80;;;;;;;16.85;76.95;94145.63;5136042;27;20961;-79
2022/11/20 02:51:36;;;;;;;4.90;2.40;;;;;;;16.96;75.90;94158.38;5136086;27;20445;-79
2022/11/20 02:54:04;;;;;;;2.00;1.80;;;;;;;17.07;75.84;94160.56;5135783;27;20836;-80
2022/11/20 02:56:31;;;;;;;4.80;2.83;;;;;;;17.22;74.72;94169.28;5135611;27;20449;-79
2022/11/20 02:58:59;;;;;;;2.10;1.90;;;;;;;17.33;74.48;94166.13;5135906;27;20535;-78
2022/11/20 03:01:26;;;;;;;3.00;1.73;;;;;;;17.49;73.71;94161.59;5135979;27;20446;-78
2022/11/20 03:03:54;;;;;;;4.00;1.80;;;;;;;17.71;71.48;94168.56;5099892;27;20931;-79
2022/11/20 03:06:21;;;;;;;1.60;1.50;;;;;;;17.87;71.28;94188.69;5100094;27;20466;-79
2022/11/20 03:08:48;;;;;;;3.80;1.50;;;;;;;17.98;70.81;94192.66;5116384;27;20476;-78
2022/11/20 03:11:15;;;;;;;4.13;1.90;;;;;;;18.08;71.01;94206.44;5135758;27;20446;-79
2022/11/20 03:13:41;;;;;;;2.93;1.83;;;;;;;18.08;70.41;94182.53;5135489;27;20438;-79
2022/11/20 03:16:13;;;;;;;4.67;1.73;;;;;;;18.20;70.67;94181.78;5136021;27;20453;-79
2022/11/20 03:18:39;;;;;;;3.30;2.10;;;;;;;18.27;70.87;94195.97;5135274;27;20481;-79
2022/11/20 03:21:07;;;;;;;6.30;1.90;;;;;;;18.32;69.95;94191.91;5134357;27;20962;-79
2022/11/20 03:23:34;;;;;;;3.00;2.00;;;;;;;18.39;70.00;94188.25;5135198;27;20442;-79
2022/11/20 03:26:16;;;;;;;2.53;2.30;;;;;;;18.43;70.07;94199.31;5135559;27;20453;-78
2022/11/20 03:28:46;;;;;;;2.90;2.00;;;;;;;18.39;70.36;94193.56;5135191;27;20470;-79
2022/11/20 03:31:16;;;;;;;2.57;1.83;;;;;;;18.40;70.08;94205.00;5135297;27;20442;-79
2022/11/20 03:33:44;;;;;;;3.10;1.67;;;;;;;18.43;70.19;94201.97;5135182;27;20434;-79
2022/11/20 03:36:13;;;;;;;5.87;2.10;;;;;;;18.37;70.36;94194.78;5115922;27;20943;-79
2022/11/20 03:38:41;;;;;;;3.43;1.53;;;;;;;18.40;70.49;94199.69;5134926;27;20482;-79
2022/11/20 03:41:10;;;;;;;4.90;2.27;;;;;;;18.35;70.57;94192.31;5135369;27;20820;-79
2022/11/20 03:43:37;;;;;;;2.90;2.13;;;;;;;18.38;70.33;94213.19;5134884;27;20450;-79
2022/11/20 03:46:05;;;;;;;2.53;1.50;;;;;;;18.36;70.42;94206.44;5135291;27;20495;-79
2022/11/20 03:48:34;;;;;;;3.97;2.03;;;;;;;18.26;70.52;94190.84;5134775;27;20441;-78
2022/11/20 03:51:12;;;;;;;2.37;2.10;;;;;;;18.33;70.53;94199.66;5134970;27;20446;-78
2022/11/20 03:53:40;;;;;;;2.50;2.00;;;;;;;18.27;70.68;94192.47;5134669;27;20445;-79
2022/11/20 03:56:08;;;;;;;3.07;1.60;;;;;;;18.27;70.61;94192.47;5134863;27;20446;-79
2022/11/20 03:58:36;;;;;;;1.50;1.40;;;;;;;18.32;70.80;94197.22;5134504;27;20482;-78
2022/11/20 04:01:07;;;;;;;2.57;1.47;;;;;;;18.27;70.08;94206.59;5134581;27;20832;-79
2022/11/20 04:03:36;;;;;;;2.00;1.60;;;;;;;18.31;69.78;94212.31;5134244;27;20438;-79
2022/11/20 04:06:04;;;;;;;4.13;1.80;;;;;;;18.30;69.27;94205.38;5129328;27;20435;-79
2022/11/20 04:08:32;;;;;;;1.80;1.70;;;;;;;18.34;69.20;94209.28;5116815;27;20466;-79
2022/11/20 04:11:10;;;;;;;4.23;1.53;;;;;;;18.36;69.66;94185.16;5128346;27;20443;-79
2022/11/20 04:13:37;;;;;;;4.23;1.97;;;;;;;18.41;69.89;94211.97;5114281;28;20447;-78
2022/11/20 04:16:04;;;;;;;3.97;2.13;;;;;;;18.38;68.97;94193.75;5096072;28;20438;-80
2022/11/20 04:18:30;;;;;;;2.83;1.53;;;;;;;18.32;68.87;94213.97;5134727;27;20486;-79
2022/11/20 04:20:59;;;;;;;2.07;1.80;;;;;;;18.31;68.68;94214.97;5125523;27;20475;-80
2022/11/20 04:23:27;;;;;;;7.60;1.80;;;;;;;18.17;69.45;94205.25;5113690;28;20496;-80
2022/11/20 04:25:54;;;;;;;1.47;1.37;;;;;;;18.29;69.20;94224.16;5088276;28;20450;-79
2022/11/20 04:28:21;;;;;;;5.10;2.47;;;;;;;18.32;70.37;94224.59;5131513;27;20437;-80
2022/11/20 04:30:47;;;;;;;3.67;1.57;;;;;;;18.37;69.51;94232.78;5134593;27;20438;-81
2022/11/20 04:33:14;;;;;;;6.13;2.10;;;;;;;18.37;70.01;94246.06;5134129;27;20435;-81
2022/11/20 04:35:41;;;;;;;5.50;2.73;;;;;;;18.36;69.22;94243.63;5120618;27;20922;-80
2022/11/20 04:38:09;;;;;;;4.60;2.07;;;;;;;18.23;70.11;94249.66;5113368;27;20992;-81
2022/11/20 04:40:36;;;;;;;3.67;2.07;;;;;;;18.24;71.33;94230.06;5078244;28;20447;-82
2022/11/20 04:43:03;;;;;;;2.00;1.80;;;;;;;18.11;71.45;94240.56;5113638;28;20450;-83
2022/11/20 04:45:29;;;;;;;2.93;1.70;;;;;;;18.19;72.20;94229.78;5113967;28;20438;-84
2022/11/20 04:47:56;;;;;;;3.63;1.90;;;;;;;18.11;72.26;94227.28;5114123;28;20428;-82
2022/11/20 04:50:23;;;;;;;1.57;1.47;;;;;;;18.11;73.15;94225.44;5078534;28;20434;-80
2022/11/20 04:52:50;;;;;;;3.03;2.10;;;;;;;18.16;72.83;94228.34;5095174;28;20453;-81
2022/11/20 04:55:18;;;;;;;8.70;1.60;;;;;;;18.05;73.62;94206.81;5114625;28;20442;-81
2022/11/20 04:57:45;;;;;;;3.13;1.80;;;;;;;17.94;73.58;94206.34;5123592;28;20449;-79
2022/11/20 05:00:13;;;;;;;2.97;1.80;;;;;;;18.00;73.44;94218.00;5087146;28;20431;-79
2022/11/20 05:02:39;;;;;;;2.00;1.90;;;;;;;18.00;73.36;94211.88;5064638;28;20435;-80
2022/11/20 05:05:07;;;;;;;8.90;2.83;;;;;;;18.01;73.38;94226.78;5134067;27;20445;-80
2022/11/20 05:07:33;;;;;;;3.93;2.13;;;;;;;17.95;74.14;94218.59;5133856;27;20481;-80
2022/11/20 05:10:00;;;;;;;3.83;1.73;;;;;;;17.86;76.32;94219.72;5134086;27;20438;-81
2022/11/20 05:12:28;;;;;;;3.37;2.40;;;;;;;17.74;80.46;94220.44;5133567;27;20923;-80
2022/11/20 05:14:55;;;;;;;5.83;1.83;;;;;;;17.67;81.81;94225.69;5117568;28;20924;-80
2022/11/20 05:17:22;;;;;;;3.97;2.20;;;;;;;17.44;84.27;94209.09;5113446;28;20427;-81
2022/11/20 05:19:49;;;;;;;1.87;1.70;;;;;;;17.41;84.98;94210.28;5113979;28;20474;-81
2022/11/20 05:22:15;;;;;;;4.27;2.00;;;;;;;17.27;85.24;94205.84;5113428;28;20435;-81
2022/11/20 05:24:42;;;;;;;4.13;2.40;;;;;;;17.23;85.90;94200.09;5113333;28;20432;-80
2022/11/20 05:27:09;;;;;;;101.87;80.03;;;;;;;18.10;100.00;94175.19;5113663;28;20442;-81
2022/11/20 05:29:37;;;;;;;45.17;39.40;;;;;;;18.48;100.00;94175.63;5113388;28;20443;-81
2022/11/20 05:32:05;;;;;;;47.20;33.10;;;;;;;18.92;100.00;94188.56;5124261;28;20443;-82
2022/11/20 05:34:32;;;;;;;16.93;13.40;;;;;;;19.32;89.20;94215.31;5119721;28;20475;-82
2022/11/20 05:36:59;;;;;;;14.70;7.53;;;;;;;19.56;83.12;94225.44;5133743;28;20829;-81
2022/11/20 05:56:25;;;;;;;2.30;2.10;;;;;;;18.86;79.75;94192.03;5121218;27;20793;-79
2022/11/20 05:58:52;;;;;;;2.00;1.90;;;;;;;18.63;80.07;94196.81;5136014;27;20482;-80
2022/11/20 06:01:21;;;;;;;6.63;2.30;;;;;;;18.01;81.61;94201.06;5138346;27;20798;-80
2022/11/20 06:03:50;;;;;;;2.27;1.87;;;;;;;17.71;82.33;94199.59;5137500;27;20438;-80
2022/11/20 06:06:17;;;;;;;3.57;2.30;;;;;;;17.40;85.09;94178.66;5137286;27;20438;-80
2022/11/20 06:08:45;;;;;;;5.70;2.50;;;;;;;17.28;83.84;94186.25;5137368;27;20473;-79
2022/11/20 06:11:13;;;;;;;3.07;2.40;;;;;;;17.17;84.44;94192.91;5136504;27;20430;-82
2022/11/20 06:13:47;;;;;;;10.20;2.70;;;;;;;17.06;84.24;94160.72;5138297;27;20449;-80
2022/11/20 06:16:16;;;;;;;2.97;2.37;;;;;;;17.10;83.35;94185.88;5128481;27;20465;-80
2022/11/20 06:18:43;;;;;;;2.33;2.13;;;;;;;17.19;83.90;94182.91;5116728;28;20466;-81
2022/11/20 06:21:12;;;;;;;6.47;3.50;;;;;;;17.31;82.85;94188.53;5116748;28;20431;-79
2022/11/20 06:23:39;;;;;;;3.23;2.23;;;;;;;17.29;82.91;94193.22;5122905;27;20465;-82
2022/11/20 06:26:23;;;;;;;2.63;2.07;;;;;;;17.32;83.23;94204.25;5118927;27;20442;-79
2022/11/20 06:28:52;;;;;;;5.00;2.70;;;;;;;17.26;82.77;94212.16;5079139;28;20432;-80
2022/11/20 06:31:21;;;;;;;3.70;2.20;;;;;;;17.32;82.53;94195.47;5104530;28;20474;-80
2022/11/20 06:33:49;;;;;;;7.03;2.40;;;;;;;17.36;82.73;94212.69;5099643;28;20794;-80
2022/11/20 06:36:18;;;;;;;4.70;3.23;;;;;;;17.21;83.30;94199.47;5106154;28;20451;-80
2022/11/20 06:38:51;;;;;;;7.00;3.27;;;;;;;17.19;82.88;94200.66;5116354;28;20482;-80
2022/11/20 06:41:20;;;;;;;5.47;2.60;;;;;;;17.25;82.44;94215.81;5113306;28;20467;-84
2022/11/20 06:43:47;;;;;;;4.33;2.40;;;;;;;17.36;81.72;94206.56;5103519;28;20461;-80
2022/11/20 06:46:17;;;;;;;2.20;2.10;;;;;;;17.33;82.19;94202.44;5116294;27;20451;-80
2022/11/20 06:48:45;;;;;;;2.73;2.20;;;;;;;17.39;81.72;94195.56;5115879;28;20443;-79
2022/11/20 06:51:12;;;;;;;3.67;2.30;;;;;;;17.35;81.99;94200.44;5115906;28;20481;-79
2022/11/20 06:53:39;;;;;;;3.27;2.00;;;;;;;17.45;80.84;94211.56;5079979;28;20978;-80
2022/11/20 06:56:06;;;;;;;2.70;1.70;;;;;;;17.46;80.04;94207.88;5116468;28;20454;-80
2022/11/20 06:58:34;;;;;;;4.13;1.93;;;;;;;17.56;80.65;94212.88;5115599;28;20467;-80
2022/11/20 07:01:01;;;;;;;3.30;1.77;;;;;;;17.59;79.19;94212.50;5115708;28;20851;-79
2022/11/20 07:03:29;;;;;;;5.47;1.97;;;;;;;17.73;79.39;94224.91;5115871;28;20851;-80
2022/11/20 07:05:57;;;;;;;2.27;1.80;;;;;;;17.61;77.95;94210.47;5115121;28;20443;-79
2022/11/20 07:08:24;;;;;;;2.37;2.17;;;;;;;17.68;77.68;94222.03;5070668;28;20482;-80
2022/11/20 07:10:50;;;;;;;5.17;2.10;;;;;;;17.71;77.58;94226.13;5094244;28;20448;-80
2022/11/20 07:13:17;;;;;;;2.73;2.50;;;;;;;17.71;77.72;94221.63;5094497;28;20456;-78
2022/11/20 07:15:44;;;;;;;2.70;1.57;;;;;;;17.79;76.43;94224.16;5058834;28;20753;-80
2022/11/20 07:18:11;;;;;;;2.33;1.60;;;;;;;17.92;76.86;94231.41;5093992;28;20444;-80
2022/11/20 07:20:39;;;;;;;2.83;2.20;;;;;;;17.96;76.89;94238.00;5093999;28;20478;-80
2022/11/20 07:23:06;;;;;;;2.43;1.80;;;;;;;17.99;77.64;94224.34;5093869;28;20929;-80
2022/11/20 07:25:33;;;;;;;3.50;2.10;;;;;;;17.88;76.12;94223.00;5094189;28;20475;-80
2022/11/20 07:28:00;;;;;;;2.43;1.90;;;;;;;18.00;79.47;94230.47;5094097;28;20467;-80
2022/11/20 07:30:28;;;;;;;4.70;2.10;;;;;;;18.05;77.11;94223.56;5094118;28;20448;-80
2022/11/20 07:32:55;;;;;;;3.47;2.27;;;;;;;18.13;77.44;94227.91;5093955;28;20447;-80
2022/11/20 07:35:23;;;;;;;4.70;1.77;;;;;;;18.05;75.19;94226.22;5093898;28;20447;-80
2022/11/20 07:37:51;;;;;;;4.43;2.03;;;;;;;18.00;75.47;94228.63;5074799;28;20439;-80
2022/11/20 07:40:19;;;;;;;2.63;1.87;;;;;;;17.99;76.21;94229.66;5093625;28;20488;-80
2022/11/20 07:42:50;;;;;;;2.27;2.07;;;;;;;17.97;76.33;94217.56;5093721;28;20949;-79
2022/11/20 07:45:16;;;;;;;3.03;1.90;;;;;;;17.99;75.49;94234.13;5093886;28;20522;-80
2022/11/20 07:47:43;;;;;;;2.87;2.10;;;;;;;17.86;75.61;94217.06;5093618;28;20448;-80
2022/11/20 07:50:11;;;;;;;3.73;2.27;;;;;;;17.82;75.68;94220.28;5058114;28;20446;-80
2022/11/20 07:52:38;;;;;;;7.37;2.00;;;;;;;17.94;75.73;94221.44;5093539;28;20448;-80
2022/11/20 07:55:07;;;;;;;1.67;1.50;;;;;;;18.01;75.75;94216.19;5093439;28;20955;-81
2022/11/20 07:57:34;;;;;;;2.63;1.60;;;;;;;18.06;76.03;94222.56;5093590;28;20451;-80
2022/11/20 08:00:01;;;;;;;3.33;1.60;;;;;;;18.00;75.20;94228.63;5093385;28;20482;-80
2022/11/20 08:02:28;;;;;;;3.03;2.20;;;;;;;18.02;74.71;94228.44;5093483;28;20930;-80
2022/11/20 08:04:55;;;;;;;6.00;2.10;;;;;;;18.13;75.60;94243.84;5093529;28;20452;-80
2022/11/20 08:07:21;;;;;;;2.80;2.10;;;;;;;18.19;76.56;94233.25;5092549;28;21023;-80
2022/11/20 08:09:48;;;;;;;3.37;1.80;;;;;;;17.97;75.76;94222.88;5093693;28;20436;-80
2022/11/20 08:15:06;;;;;;;2.17;1.93;;;;;;;17.98;75.72;94224.53;5093268;28;20482;-80
2022/11/20 08:17:33;;;;;;;6.20;2.00;;;;;;;18.07;75.33;94215.41;5093627;28;20452;-80
2022/11/20 08:20:00;;;;;;;4.93;1.93;;;;;;;18.20;74.43;94220.81;5093020;28;20475;-80
2022/11/20 08:22:27;;;;;;;7.00;2.10;;;;;;;18.22;73.77;94224.13;5093127;28;20443;-80
2022/11/20 08:24:53;;;;;;;7.90;1.80;;;;;;;18.22;74.70;94209.00;5093103;28;20444;-80
2022/11/20 08:27:22;;;;;;;2.70;2.00;;;;;;;18.22;73.90;94205.53;5093056;28;20447;-79
2022/11/20 08:29:48;;;;;;;4.03;1.90;;;;;;;18.20;73.71;94205.69;5092810;28;20956;-80
2022/11/20 08:32:15;;;;;;;2.33;1.97;;;;;;;18.23;75.09;94226.56;5093120;28;20451;-80
2022/11/20 08:34:42;;;;;;;2.83;1.80;;;;;;;18.28;75.26;94223.34;5092878;28;20444;-80
2022/11/20 08:37:09;;;;;;;4.83;1.93;;;;;;;18.27;74.44;94235.81;5092865;28;20477;-80
2022/11/20 08:39:35;;;;;;;3.60;2.83;;;;;;;18.32;74.29;94223.78;5092608;28;20483;-79
2022/11/20 08:42:02;;;;;;;1.83;1.60;;;;;;;18.29;73.92;94219.66;5092533;28;20447;-80
2022/11/20 08:44:30;;;;;;;2.63;1.70;;;;;;;18.36;73.40;94219.72;5092563;28;20443;-80
2022/11/20 08:46:57;;;;;;;2.30;2.10;;;;;;;18.33;73.10;94231.53;5092641;28;20956;-79
2022/11/20 08:49:24;;;;;;;18.67;3.27;;;;;;;18.50;73.55;94240.03;5092635;28;20488;-81
2022/11/20 08:51:54;;;;;;;7.60;1.63;;;;;;;18.63;73.82;94255.28;5092694;28;20502;-80
2022/11/20 08:54:22;;;;;;;2.43;1.70;;;;;;;18.70;72.53;94272.09;5092555;28;20436;-80
2022/11/20 08:56:49;;;;;;;5.90;3.10;;;;;;;18.78;73.63;94277.22;5092404;28;20479;-79
2022/11/20 08:59:16;;;;;;;6.27;3.50;;;;;;;18.83;75.03;94277.50;5056566;28;20475;-80
2022/11/20 09:01:44;;;;;;;4.20;2.00;;;;;;;18.78;73.20;94277.22;5092827;28;20452;-80
2022/11/20 09:04:11;;;;;;;4.17;2.13;;;;;;;18.78;73.03;94263.94;5092737;28;20443;-80
2022/11/20 09:06:38;;;;;;;3.00;2.00;;;;;;;18.74;71.60;94278.66;5092195;28;20466;-80
2022/11/20 09:09:05;;;;;;;8.50;2.07;;;;;;;18.66;72.22;94254.88;5092266;28;20536;-79
2022/11/20 09:11:32;;;;;;;3.93;1.93;;;;;;;18.70;72.59;94266.75;5092789;28;20439;-80
2022/11/20 09:13:59;;;;;;;3.47;2.80;;;;;;;18.81;73.83;94271.56;5093335;28;20449;-79
2022/11/20 09:16:26;;;;;;;5.73;2.40;;;;;;;18.81;74.46;94261.75;5094319;28;20925;-80
2022/11/20 09:18:54;;;;;;;10.47;3.70;;;;;;;18.78;75.24;94262.09;5094561;28;20431;-79
2022/11/20 09:21:30;;;;;;;8.43;3.70;;;;;;;18.74;75.76;94262.69;5097793;28;20434;-80
2022/11/20 09:23:57;;;;;;;10.13;7.07;;;;;;;18.72;76.98;94267.38;5097590;28;20459;-76
2022/11/20 09:26:24;;;;;;;16.83;9.10;;;;;;;18.70;76.82;94256.13;5097499;28;20454;-81
2022/11/20 09:28:51;;;;;;;11.03;6.50;;;;;;;18.74;76.54;94265.34;5097210;28;20456;-78
2022/11/20 09:31:22;;;;;;;7.83;5.47;;;;;;;18.79;76.75;94260.28;5097118;28;20447;-78
2022/11/20 09:33:49;;;;;;;6.83;4.90;;;;;;;18.74;75.68;94257.38;5103360;28;20512;-78
2022/11/20 09:36:18;;;;;;;4.83;3.40;;;;;;;18.72;77.38;94267.38;5117583;28;20431;-78
2022/11/20 09:38:45;;;;;;;9.13;4.37;;;;;;;18.54;76.98;94250.09;5116686;28;20925;-79
2022/11/20 09:41:32;;;;;;;12.60;4.70;;;;;;;18.53;78.89;94259.06;5116929;28;20475;-78
2022/11/20 09:44:08;;;;;;;4.93;3.80;;;;;;;18.40;78.65;94248.34;5097339;28;20448;-77
2022/11/20 09:46:45;;;;;;;6.30;4.57;;;;;;;18.35;79.13;94250.75;5068027;28;20440;-79
2022/11/20 09:49:29;;;;;;;11.07;6.50;;;;;;;18.29;79.47;94246.22;5097617;28;20436;-80
2022/11/20 09:52:00;;;;;;;10.70;5.40;;;;;;;18.11;80.14;94251.19;5117732;28;20446;-79
2022/11/20 09:54:32;;;;;;;6.90;4.30;;;;;;;17.99;80.56;94234.97;5117043;28;20458;-79
2022/11/20 09:57:01;;;;;;;5.07;3.83;;;;;;;17.91;81.41;94243.84;5117616;28;20439;-79
2022/11/20 09:59:36;;;;;;;6.53;4.10;;;;;;;17.87;80.92;94249.72;5117178;28;20482;-80
2022/11/20 10:02:16;;;;;;;5.13;4.50;;;;;;;17.78;81.06;94229.66;5098267;28;20819;-77
2022/11/20 10:04:49;;;;;;;5.70;3.60;;;;;;;17.66;82.44;94210.75;5117219;28;20859;-78
2022/11/20 10:07:23;;;;;;;9.00;4.03;;;;;;;17.41;85.93;94206.81;5116997;28;20987;-78
2022/11/20 10:09:53;;;;;;;6.53;3.60;;;;;;;17.20;87.69;94213.72;5116864;28;20582;-77
2022/11/20 10:12:28;;;;;;;6.13;3.33;;;;;;;17.17;88.49;94203.50;5116999;28;20447;-81
2022/11/20 10:15:11;;;;;;;3.73;3.33;;;;;;;17.12;89.07;94187.34;5117036;28;20430;-78
2022/11/20 10:18:00;;;;;;;4.20;3.73;;;;;;;17.20;89.30;94181.91;5117256;28;20435;-79
2022/11/20 10:20:34;;;;;;;3.40;3.10;;;;;;;17.03;90.74;94185.78;5116834;28;20477;-77
2022/11/20 10:23:21;;;;;;;6.13;3.50;;;;;;;17.04;90.91;94188.25;5081339;28;20438;-77
2022/11/20 10:25:56;;;;;;;6.10;4.43;;;;;;;17.08;91.03;94182.59;5116705;28;20450;-78
2022/11/20 10:28:38;;;;;;;10.53;4.00;;;;;;;17.14;91.12;94182.66;5117139;28;20459;-77
2022/11/20 10:31:09;;;;;;;5.10;3.30;;;;;;;17.04;95.06;94171.53;5116167;28;20443;-78
2022/11/20 10:33:40;;;;;;;11.53;3.00;;;;;;;16.95;96.16;94177.94;5116855;28;20939;-78
2022/11/20 10:36:15;;;;;;;5.30;3.87;;;;;;;16.83;97.35;94190.03;5116446;28;20434;-77
2022/11/20 10:38:49;;;;;;;7.40;3.07;;;;;;;16.45;98.51;94184.81;5117051;28;20442;-78
2022/11/20 10:41:26;;;;;;;4.50;3.50;;;;;;;16.30;99.20;94197.25;5107876;28;20584;-77
2022/11/20 10:44:01;;;;;;;9.00;4.30;;;;;;;16.26;99.63;94188.84;5096017;28;20432;-79
2022/11/20 10:46:39;;;;;;;6.97;4.67;;;;;;;16.32;98.08;94188.13;5096098;28;20796;-77
2022/11/20 10:49:13;;;;;;;6.53;3.60;;;;;;;16.36;98.29;94183.28;5096235;28;20452;-77
2022/11/20 10:51:52;;;;;;;4.37;3.90;;;;;;;16.34;98.35;94169.41;5112727;28;20459;-77
2022/11/20 10:54:28;;;;;;;3.70;3.40;;;;;;;16.36;97.17;94173.50;5116430;28;20438;-77
2022/11/20 10:57:00;;;;;;;6.47;4.43;;;;;;;16.35;97.69;94194.88;5116506;28;20449;-77
2022/11/20 11:00:01;;;;;;;6.83;4.30;;;;;;;16.31;97.93;94189.13;5116239;27;20438;-78
2022/11/20 11:02:35;;;;;;;6.67;3.70;;;;;;;16.25;97.76;94192.50;5116248;28;20488;-77
2022/11/20 11:05:15;;;;;;;7.50;3.43;;;;;;;16.20;97.64;94196.72;5116364;28;20450;-78
2022/11/20 11:07:42;;;;;;;5.17;3.20;;;;;;;16.34;97.45;94211.75;5108365;28;20507;-78
2022/11/20 11:10:18;;;;;;;4.33;3.57;;;;;;;16.49;96.52;94227.69;5102750;28;20499;-78
2022/11/20 11:12:47;;;;;;;5.53;5.00;;;;;;;16.56;97.14;94236.53;5104613;28;20461;-77
2022/11/20 11:15:26;;;;;;;8.90;5.67;;;;;;;16.57;98.35;94243.47;5104395;28;20483;-77
2022/11/20 11:17:53;;;;;;;6.23;4.23;;;;;;;16.52;99.01;94222.00;5103959;28;20458;-78
2022/11/20 11:20:21;;;;;;;11.90;5.23;;;;;;;16.38;100.00;94260.72;5110770;28;20479;-77
2022/11/20 11:22:50;;;;;;;13.30;7.20;;;;;;;16.39;100.00;94287.00;5108159;28;20448;-77
2022/11/20 11:25:27;;;;;;;10.43;7.67;;;;;;;16.35;100.00;94282.25;5106011;28;20503;-77
2022/11/20 11:27:56;;;;;;;10.60;8.10;;;;;;;16.25;100.00;94234.88;5115838;28;20427;-77
2022/11/20 11:30:25;;;;;;;10.90;7.07;;;;;;;16.20;100.00;94241.72;5115687;28;20826;-77
2022/11/20 11:33:02;;;;;;;9.10;6.43;;;;;;;16.22;100.00;94250.28;5115318;28;20473;-76
2022/11/20 11:38:53;;;;;;;14.43;8.50;;;;;;;16.26;100.00;94286.81;5115411;28;20494;-77
2022/11/20 11:41:26;;;;;;;10.80;6.57;;;;;;;16.30;100.00;94300.50;5079322;28;20521;-77
2022/11/20 11:46:41;;;;;;;17.40;6.73;;;;;;;16.05;100.00;94305.19;5115251;28;20913;-78
2022/11/20 11:49:18;;;;;;;11.20;6.87;;;;;;;15.75;100.00;94280.44;5115063;28;20450;-77
2022/11/20 11:52:03;;;;;;;19.77;6.50;;;;;;;15.44;100.00;94277.81;5116095;28;20773;-79
2022/11/20 11:54:36;;;;;;;16.00;6.53;;;;;;;15.43;100.00;94265.59;5114970;28;20476;-77
2022/11/20 11:57:11;;;;;;;8.23;7.40;;;;;;;15.48;100.00;94257.94;5114935;28;20522;-77
2022/11/20 11:59:50;;;;;;;13.63;3.73;;;;;;;15.42;99.62;94261.28;5114768;28;20470;-77
2022/11/20 12:02:28;;;;;;;14.07;4.00;;;;;;;15.39;96.86;94253.72;5114484;28;20456;-77
2022/11/20 12:04:58;;;;;;;3.80;1.70;;;;;;;15.33;97.06;94249.13;5115118;28;20502;-77
2022/11/20 12:07:37;;;;;;;6.63;2.67;;;;;;;15.26;97.19;94241.06;5114884;28;20475;-77
2022/11/20 12:10:05;;;;;;;4.20;2.40;;;;;;;15.21;96.77;94235.47;5114282;28;20450;-77
2022/11/20 12:12:40;;;;;;;5.60;1.90;;;;;;;15.17;97.42;94250.03;5114750;28;20429;-77
2022/11/20 12:15:12;;;;;;;2.30;1.50;;;;;;;15.04;95.91;94252.44;5114261;28;20448;-77
2022/11/20 12:17:43;;;;;;;1.10;1.00;;;;;;;14.95;95.48;94261.38;5112733;28;20433;-77
2022/11/20 12:20:15;;;;;;;1.40;1.00;;;;;;;14.72;94.90;94261.28;5113353;28;20492;-76
2022/11/20 12:22:51;;;;;;;4.50;1.00;;;;;;;14.70;96.46;94263.28;5113344;28;20660;-78
2022/11/20 12:25:23;;;;;;;1.30;1.20;;;;;;;14.65;96.70;94258.50;5113164;28;20453;-78
2022/11/20 12:28:14;;;;;;;1.70;1.47;;;;;;;14.55;96.88;94245.50;5111180;28;20433;-77